sensor_id;sensor_type;location;lat;lon;timestamp;pressure;altitude;pressure_sealevel;temperature;humidity
51460;BME280;37534;39.772;2.718;2023-04-05T00:00:41;101572.13;;;8.92;100.00
51460;BME280;37534;39.772;2.718;2023-04-05T00:03:07;101573.81;;;8.94;100.00
51460;BME280;37534;39.772;2.718;2023-04-05T00:05:34;101570.38;;;8.99;100.00
51460;BME280;37534;39.772;2.718;2023-04-05T00:08:02;101573.84;;;8.91;100.00
51460;BME280;37534;39.772;2.718;2023-04-05T00:10:31;101575.56;;;8.86;100.00
51460;BME280;37534;39.772;2.718;2023-04-05T00:12:57;101581.56;;;8.91;100.00
51460;BME280;37534;39.772;2.718;2023-04-05T00:15:23;101573.88;;;8.88;100.00
51460;BME280;37534;39.772;2.718;2023-04-05T00:17:48;101567.06;;;8.78;100.00
51460;BME280;37534;39.772;2.718;2023-04-05T00:20:14;101580.75;;;8.83;100.00
51460;BME280;37534;39.772;2.718;2023-04-05T00:22:41;101573.03;;;8.83;100.00
51460;BME280;37534;39.772;2.718;2023-04-05T00:25:09;101578.19;;;8.82;100.00
51460;BME280;37534;39.772;2.718;2023-04-05T00:27:34;101577.34;;;8.73;100.00
51460;BME280;37534;39.772;2.718;2023-04-05T00:30:00;101567.00;;;8.84;100.00
51460;BME280;37534;39.772;2.718;2023-04-05T00:32:26;101575.63;;;8.80;100.00
51460;BME280;37534;39.772;2.718;2023-04-05T00:34:51;101573.03;;;8.80;100.00
51460;BME280;37534;39.772;2.718;2023-04-05T00:37:17;101578.97;;;8.98;100.00
51460;BME280;37534;39.772;2.718;2023-04-05T00:39:42;101579.94;;;8.72;100.00
51460;BME280;37534;39.772;2.718;2023-04-05T00:42:08;101580.00;;;8.58;100.00
51460;BME280;37534;39.772;2.718;2023-04-05T00:44:34;101574.03;;;8.51;100.00
51460;BME280;37534;39.772;2.718;2023-04-05T00:47:06;101573.19;;;8.46;100.00
51460;BME280;37534;39.772;2.718;2023-04-05T00:49:33;101574.03;;;8.48;100.00
51460;BME280;37534;39.772;2.718;2023-04-05T00:52:00;101570.63;;;8.45;100.00
51460;BME280;37534;39.772;2.718;2023-04-05T00:54:27;101568.91;;;8.33;100.00
51460;BME280;37534;39.772;2.718;2023-04-05T00:56:57;101575.75;;;8.37;100.00
51460;BME280;37534;39.772;2.718;2023-04-05T00:59:27;101577.50;;;8.30;100.00
51460;BME280;37534;39.772;2.718;2023-04-05T01:02:23;101568.94;;;8.30;100.00
51460;BME280;37534;39.772;2.718;2023-04-05T01:04:58;101565.47;;;8.31;100.00
51460;BME280;37534;39.772;2.718;2023-04-05T01:07:38;101573.22;;;8.17;100.00
51460;BME280;37534;39.772;2.718;2023-04-05T01:10:09;101564.69;;;8.07;100.00
51460;BME280;37534;39.772;2.718;2023-04-05T01:12:36;101564.72;;;7.99;100.00
51460;BME280;37534;39.772;2.718;2023-04-05T01:15:03;101556.13;;;8.02;100.00
51460;BME280;37534;39.772;2.718;2023-04-05T01:17:29;101558.69;;;7.99;100.00
51460;BME280;37534;39.772;2.718;2023-04-05T01:20:03;101557.81;;;8.09;100.00
51460;BME280;37534;39.772;2.718;2023-04-05T01:38:22;101545.88;;;7.77;100.00
51460;BME280;37534;39.772;2.718;2023-04-05T01:40:50;101558.72;;;7.77;100.00
51460;BME280;37534;39.772;2.718;2023-04-05T01:43:16;101537.34;;;7.69;100.00
51460;BME280;37534;39.772;2.718;2023-04-05T01:45:43;101550.16;;;7.72;100.00
51460;BME280;37534;39.772;2.718;2023-04-05T01:48:09;101546.75;;;7.73;100.00
51460;BME280;37534;39.772;2.718;2023-04-05T01:50:35;101541.59;;;7.84;100.00
51460;BME280;37534;39.772;2.718;2023-04-05T01:53:00;101544.19;;;7.73;100.00
51460;BME280;37534;39.772;2.718;2023-04-05T01:55:26;101532.19;;;7.66;100.00
51460;BME280;37534;39.772;2.718;2023-04-05T01:57:53;101546.72;;;7.79;100.00
51460;BME280;37534;39.772;2.718;2023-04-05T02:00:20;101535.59;;;7.80;100.00
51460;BME280;37534;39.772;2.718;2023-04-05T02:02:46;101533.91;;;7.75;100.00
51460;BME280;37534;39.772;2.718;2023-04-05T02:05:11;101528.78;;;7.59;100.00
51460;BME280;37534;39.772;2.718;2023-04-05T02:07:37;101538.19;;;7.56;100.00
51460;BME280;37534;39.772;2.718;2023-04-05T02:10:03;101535.63;;;7.54;100.00
51460;BME280;37534;39.772;2.718;2023-04-05T02:12:28;101529.63;;;7.51;100.00
51460;BME280;37534;39.772;2.718;2023-04-05T02:14:54;101539.06;;;7.53;100.00
51460;BME280;37534;39.772;2.718;2023-04-05T02:17:20;101527.06;;;7.49;100.00
51460;BME280;37534;39.772;2.718;2023-04-05T02:19:46;101528.78;;;7.49;100.00
51460;BME280;37534;39.772;2.718;2023-04-05T02:22:12;101532.19;;;7.48;100.00
51460;BME280;37534;39.772;2.718;2023-04-05T02:24:38;101532.22;;;7.43;100.00
51460;BME280;37534;39.772;2.718;2023-04-05T02:27:03;101531.34;;;7.42;100.00
51460;BME280;37534;39.772;2.718;2023-04-05T02:29:29;101525.34;;;7.40;100.00
51460;BME280;37534;39.772;2.718;2023-04-05T02:31:56;101523.66;;;7.50;100.00
51460;BME280;37534;39.772;2.718;2023-04-05T02:34:22;101514.22;;;7.37;100.00
51460;BME280;37534;39.772;2.718;2023-04-05T02:36:49;101524.47;;;7.35;100.00
51460;BME280;37534;39.772;2.718;2023-04-05T02:39:15;101526.19;;;7.33;100.00
51460;BME280;37534;39.772;2.718;2023-04-05T02:41:41;101528.75;;;7.42;100.00
51460;BME280;37534;39.772;2.718;2023-04-05T02:44:06;101521.06;;;7.33;100.00
51460;BME280;37534;39.772;2.718;2023-04-05T02:46:32;101527.91;;;7.51;100.00
51460;BME280;37534;39.772;2.718;2023-04-05T02:48:57;101521.94;;;7.34;100.00
51460;BME280;37534;39.772;2.718;2023-04-05T02:51:23;101534.78;;;7.31;100.00
51460;BME280;37534;39.772;2.718;2023-04-05T02:53:48;101538.19;;;7.30;100.00
51460;BME280;37534;39.772;2.718;2023-04-05T02:56:14;101541.63;;;7.29;100.00
51460;BME280;37534;39.772;2.718;2023-04-05T02:58:39;101536.47;;;7.22;100.00
51460;BME280;37534;39.772;2.718;2023-04-05T03:01:05;101543.31;;;7.34;100.00
51460;BME280;37534;39.772;2.718;2023-04-05T03:03:32;101540.75;;;7.33;100.00
51460;BME280;37534;39.772;2.718;2023-04-05T03:06:04;101538.19;;;7.36;100.00
51460;BME280;37534;39.772;2.718;2023-04-05T03:08:40;101539.91;;;7.41;100.00
51460;BME280;37534;39.772;2.718;2023-04-05T03:11:10;101537.31;;;7.37;100.00
51460;BME280;37534;39.772;2.718;2023-04-05T03:13:36;101530.47;;;7.30;100.00
51460;BME280;37534;39.772;2.718;2023-04-05T03:16:04;101542.47;;;7.31;100.00
51460;BME280;37534;39.772;2.718;2023-04-05T03:18:30;101544.19;;;7.27;100.00
51460;BME280;37534;39.772;2.718;2023-04-05T03:20:56;101541.59;;;7.18;100.00
51460;BME280;37534;39.772;2.718;2023-04-05T03:23:27;101537.31;;;7.17;100.00
51460;BME280;37534;39.772;2.718;2023-04-05T03:25:57;101534.78;;;7.31;100.00
51460;BME280;37534;39.772;2.718;2023-04-05T03:28:24;101536.50;;;7.30;100.00
51460;BME280;37534;39.772;2.718;2023-04-05T03:30:50;101533.88;;;7.19;100.00
51460;BME280;37534;39.772;2.718;2023-04-05T03:33:17;101526.19;;;7.15;100.00
51460;BME280;37534;39.772;2.718;2023-04-05T03:35:42;101536.44;;;7.10;100.00
51460;BME280;37534;39.772;2.718;2023-04-05T03:38:08;101533.88;;;7.02;100.00
51460;BME280;37534;39.772;2.718;2023-04-05T03:40:33;101527.88;;;6.99;100.00
51460;BME280;37534;39.772;2.718;2023-04-05T03:42:59;101536.41;;;6.96;100.00
51460;BME280;37534;39.772;2.718;2023-04-05T03:45:24;101532.16;;;6.97;100.00
51460;BME280;37534;39.772;2.718;2023-04-05T03:47:51;101527.88;;;7.00;100.00
51460;BME280;37534;39.772;2.718;2023-04-05T03:50:17;101531.31;;;7.06;100.00
51460;BME280;37534;39.772;2.718;2023-04-05T03:52:43;101531.31;;;7.02;100.00
51460;BME280;37534;39.772;2.718;2023-04-05T03:55:09;101539.88;;;7.08;100.00
51460;BME280;37534;39.772;2.718;2023-04-05T03:57:36;101524.44;;;7.01;100.00
51460;BME280;37534;39.772;2.718;2023-04-05T04:00:03;101533.91;;;7.15;100.00
51460;BME280;37534;39.772;2.718;2023-04-05T04:02:42;101533.91;;;7.18;100.00
51460;BME280;37534;39.772;2.718;2023-04-05T04:05:08;101536.44;;;7.09;100.00
51460;BME280;37534;39.772;2.718;2023-04-05T04:07:33;101539.88;;;6.98;100.00
51460;BME280;37534;39.772;2.718;2023-04-05T04:09:59;101545.81;;;6.93;100.00
51460;BME280;37534;39.772;2.718;2023-04-05T04:12:24;101530.41;;;6.77;100.00
51460;BME280;37534;39.772;2.718;2023-04-05T04:14:50;101551.78;;;6.87;100.00
51460;BME280;37534;39.772;2.718;2023-04-05T04:17:28;101533.88;;;6.93;100.00
51460;BME280;37534;39.772;2.718;2023-04-05T04:19:54;101544.13;;;6.95;100.00
51460;BME280;37534;39.772;2.718;2023-04-05T04:22:19;101541.56;;;7.04;100.00
51460;BME280;37534;39.772;2.718;2023-04-05T04:24:45;101548.41;;;7.00;100.00
51460;BME280;37534;39.772;2.718;2023-04-05T04:27:15;101534.69;;;6.92;100.00
51460;BME280;37534;39.772;2.718;2023-04-05T04:29:42;101536.41;;;6.81;100.00
51460;BME280;37534;39.772;2.718;2023-04-05T04:32:13;101536.38;;;6.72;100.00
51460;BME280;37534;39.772;2.718;2023-04-05T04:34:40;101541.50;;;6.75;100.00
51460;BME280;37534;39.772;2.718;2023-04-05T04:37:13;101531.22;;;6.75;100.00
51460;BME280;37534;39.772;2.718;2023-04-05T04:39:44;101529.53;;;6.72;100.00
51460;BME280;37534;39.772;2.718;2023-04-05T04:42:10;101525.25;;;6.68;100.00
51460;BME280;37534;39.772;2.718;2023-04-05T04:44:36;101529.50;;;6.64;100.00
51460;BME280;37534;39.772;2.718;2023-04-05T04:47:01;101535.50;;;6.74;100.00
51460;BME280;37534;39.772;2.718;2023-04-05T04:49:28;101537.19;;;6.66;100.00
51460;BME280;37534;39.772;2.718;2023-04-05T04:51:54;101531.19;;;6.59;100.00
51460;BME280;37534;39.772;2.718;2023-04-05T04:54:22;101532.91;;;6.63;100.00
51460;BME280;37534;39.772;2.718;2023-04-05T04:56:48;101525.22;;;6.65;100.00
51460;BME280;37534;39.772;2.718;2023-04-05T04:59:13;101532.94;;;6.74;100.00
51460;BME280;37534;39.772;2.718;2023-04-05T05:01:40;101532.09;;;6.72;100.00
51460;BME280;37534;39.772;2.718;2023-04-05T05:04:06;101532.09;;;6.72;100.00
51460;BME280;37534;39.772;2.718;2023-04-05T05:06:32;101536.34;;;6.75;100.00
51460;BME280;37534;39.772;2.718;2023-04-05T05:08:58;101533.78;;;6.69;100.00
51460;BME280;37534;39.772;2.718;2023-04-05T05:11:23;101538.91;;;6.65;100.00
51460;BME280;37534;39.772;2.718;2023-04-05T05:13:49;101530.38;;;6.68;100.00
51460;BME280;37534;39.772;2.718;2023-04-05T05:16:15;101535.47;;;6.62;100.00
51460;BME280;37534;39.772;2.718;2023-04-05T05:18:41;101540.63;;;6.65;100.00
51460;BME280;37534;39.772;2.718;2023-04-05T05:21:08;101536.34;;;6.65;100.00
51460;BME280;37534;39.772;2.718;2023-04-05T05:23:33;101541.50;;;6.70;100.00
51460;BME280;37534;39.772;2.718;2023-04-05T05:25:59;101543.19;;;6.70;100.00
51460;BME280;37534;39.772;2.718;2023-04-05T05:28:28;101538.03;;;6.60;100.00
51460;BME280;37534;39.772;2.718;2023-04-05T05:30:53;101550.84;;;6.60;100.00
51460;BME280;37534;39.772;2.718;2023-04-05T05:33:19;101547.41;;;6.58;100.00
51460;BME280;37534;39.772;2.718;2023-04-05T05:35:49;101552.56;;;6.60;100.00
51460;BME280;37534;39.772;2.718;2023-04-05T05:38:18;101550.00;;;6.61;100.00
51460;BME280;37534;39.772;2.718;2023-04-05T05:40:44;101545.75;;;6.68;100.00
51460;BME280;37534;39.772;2.718;2023-04-05T05:43:09;101561.19;;;6.77;100.00
51460;BME280;37534;39.772;2.718;2023-04-05T05:45:35;101562.00;;;6.70;100.00
51460;BME280;37534;39.772;2.718;2023-04-05T05:48:01;101569.69;;;6.73;100.00
51460;BME280;37534;39.772;2.718;2023-04-05T05:50:26;101568.84;;;6.74;100.00
51460;BME280;37534;39.772;2.718;2023-04-05T05:52:52;101579.13;;;6.76;100.00
51460;BME280;37534;39.772;2.718;2023-04-05T05:55:17;101581.75;;;6.91;100.00
51460;BME280;37534;39.772;2.718;2023-04-05T05:57:43;101597.13;;;6.91;100.00
51460;BME280;37534;39.772;2.718;2023-04-05T06:00:09;101594.59;;;6.99;100.00
51460;BME280;37534;39.772;2.718;2023-04-05T06:02:35;101595.47;;;7.07;100.00
51460;BME280;37534;39.772;2.718;2023-04-05T06:05:01;101601.44;;;7.06;100.00
51460;BME280;37534;39.772;2.718;2023-04-05T06:07:27;101598.03;;;7.02;100.00
51460;BME280;37534;39.772;2.718;2023-04-05T06:09:52;101589.44;;;6.97;100.00
51460;BME280;37534;39.772;2.718;2023-04-05T06:12:21;101599.75;;;7.16;100.00
51460;BME280;37534;39.772;2.718;2023-04-05T06:14:47;101597.22;;;7.30;100.00
51460;BME280;37534;39.772;2.718;2023-04-05T06:17:12;101598.06;;;7.32;100.00
51460;BME280;37534;39.772;2.718;2023-04-05T06:19:38;101598.09;;;7.36;100.00
51460;BME280;37534;39.772;2.718;2023-04-05T06:22:03;101599.78;;;7.40;100.00
51460;BME280;37534;39.772;2.718;2023-04-05T06:24:29;101604.13;;;7.46;100.00
51460;BME280;37534;39.772;2.718;2023-04-05T06:26:59;101600.69;;;7.58;100.00
51460;BME280;37534;39.772;2.718;2023-04-05T06:29:25;101606.66;;;7.60;100.00
51460;BME280;37534;39.772;2.718;2023-04-05T06:31:51;101615.22;;;7.62;100.00
51460;BME280;37534;39.772;2.718;2023-04-05T06:34:17;101620.38;;;7.65;100.00
51460;BME280;37534;39.772;2.718;2023-04-05T06:36:42;101621.22;;;7.67;100.00
51460;BME280;37534;39.772;2.718;2023-04-05T06:39:08;101626.38;;;7.96;100.00
51460;BME280;37534;39.772;2.718;2023-04-05T06:41:33;101621.22;;;8.21;100.00
51460;BME280;37534;39.772;2.718;2023-04-05T06:43:59;101631.44;;;8.40;100.00
51460;BME280;37534;39.772;2.718;2023-04-05T06:46:25;101641.75;;;8.55;100.00
51460;BME280;37534;39.772;2.718;2023-04-05T06:48:51;101643.44;;;8.65;100.00
51460;BME280;37534;39.772;2.718;2023-04-05T06:51:17;101647.66;;;8.80;100.00
51460;BME280;37534;39.772;2.718;2023-04-05T06:53:43;101646.72;;;9.03;100.00
51460;BME280;37534;39.772;2.718;2023-04-05T06:56:08;101640.63;;;9.19;100.00
51460;BME280;37534;39.772;2.718;2023-04-05T06:58:34;101642.16;;;9.48;100.00
51460;BME280;37534;39.772;2.718;2023-04-05T07:01:01;101642.75;;;9.87;100.00
51460;BME280;37534;39.772;2.718;2023-04-05T07:03:26;101649.25;;;10.30;100.00
51460;BME280;37534;39.772;2.718;2023-04-05T07:05:57;101649.75;;;10.64;100.00
51460;BME280;37534;39.772;2.718;2023-04-05T07:08:23;101654.56;;;10.98;100.00
51460;BME280;37534;39.772;2.718;2023-04-05T07:10:50;101648.94;;;11.32;100.00
51460;BME280;37534;39.772;2.718;2023-04-05T07:13:17;101644.09;;;11.68;100.00
51460;BME280;37534;39.772;2.718;2023-04-05T07:15:43;101643.16;;;12.25;100.00
51460;BME280;37534;39.772;2.718;2023-04-05T07:18:09;101641.19;;;12.83;100.00
51460;BME280;37534;39.772;2.718;2023-04-05T07:20:35;101642.41;;;13.47;100.00
51460;BME280;37534;39.772;2.718;2023-04-05T07:23:00;101652.22;;;14.05;100.00
51460;BME280;37534;39.772;2.718;2023-04-05T07:25:26;101649.34;;;14.50;100.00
51460;BME280;37534;39.772;2.718;2023-04-05T07:27:52;101648.59;;;15.08;97.46
51460;BME280;37534;39.772;2.718;2023-04-05T07:30:17;101643.81;;;15.78;92.60
51460;BME280;37534;39.772;2.718;2023-04-05T07:32:43;101670.75;;;17.02;81.37
51460;BME280;37534;39.772;2.718;2023-04-05T07:35:08;101654.88;;;18.37;74.24
51460;BME280;37534;39.772;2.718;2023-04-05T07:37:34;101667.66;;;19.94;67.08
51460;BME280;37534;39.772;2.718;2023-04-05T07:40:00;101668.56;;;21.11;60.04
51460;BME280;37534;39.772;2.718;2023-04-05T07:42:26;101666.19;;;21.22;56.75
51460;BME280;37534;39.772;2.718;2023-04-05T07:44:52;101668.16;;;22.25;52.35
51460;BME280;37534;39.772;2.718;2023-04-05T07:47:18;101660.78;;;21.87;48.56
51460;BME280;37534;39.772;2.718;2023-04-05T07:49:46;101670.91;;;22.67;47.03
51460;BME280;37534;39.772;2.718;2023-04-05T07:52:11;101665.97;;;23.45;46.02
51460;BME280;37534;39.772;2.718;2023-04-05T07:54:37;101670.03;;;24.17;44.19
51460;BME280;37534;39.772;2.718;2023-04-05T07:57:04;101671.63;;;24.32;44.22
51460;BME280;37534;39.772;2.718;2023-04-05T07:59:31;101672.06;;;24.89;42.86
51460;BME280;37534;39.772;2.718;2023-04-05T08:01:57;101673.16;;;25.83;40.72
51460;BME280;37534;39.772;2.718;2023-04-05T08:04:24;101674.03;;;26.64;38.91
51460;BME280;37534;39.772;2.718;2023-04-05T08:06:50;101681.03;;;27.20;37.34
51460;BME280;37534;39.772;2.718;2023-04-05T08:09:16;101679.03;;;27.44;36.32
51460;BME280;37534;39.772;2.718;2023-04-05T08:11:42;101688.22;;;26.85;36.22
51460;BME280;37534;39.772;2.718;2023-04-05T08:14:07;101685.66;;;26.16;37.25
51460;BME280;37534;39.772;2.718;2023-04-05T08:16:33;101687.84;;;26.33;36.18
51460;BME280;37534;39.772;2.718;2023-04-05T08:18:59;101690.16;;;27.38;35.99
51460;BME280;37534;39.772;2.718;2023-04-05T08:21:25;101691.28;;;27.57;34.06
51460;BME280;37534;39.772;2.718;2023-04-05T08:23:51;101685.94;;;28.62;32.38
51460;BME280;37534;39.772;2.718;2023-04-05T08:26:16;101689.75;;;29.29;31.53
51460;BME280;37534;39.772;2.718;2023-04-05T08:28:42;101689.16;;;30.04;31.12
51460;BME280;37534;39.772;2.718;2023-04-05T08:31:08;101692.69;;;29.94;29.72
51460;BME280;37534;39.772;2.718;2023-04-05T08:33:33;101684.31;;;30.27;29.64
51460;BME280;37534;39.772;2.718;2023-04-05T08:36:06;101691.44;;;31.01;28.71
51460;BME280;37534;39.772;2.718;2023-04-05T08:38:32;101685.38;;;30.54;27.91
51460;BME280;37534;39.772;2.718;2023-04-05T08:41:07;101693.59;;;30.88;28.33
51460;BME280;37534;39.772;2.718;2023-04-05T08:46:16;101702.28;;;30.90;28.28
51460;BME280;37534;39.772;2.718;2023-04-05T08:48:43;101704.84;;;31.81;27.13
51460;BME280;37534;39.772;2.718;2023-04-05T08:51:09;101689.38;;;32.46;25.91
51460;BME280;37534;39.772;2.718;2023-04-05T08:53:34;101700.38;;;33.28;25.45
51460;BME280;37534;39.772;2.718;2023-04-05T08:56:01;101698.34;;;33.63;24.64
51460;BME280;37534;39.772;2.718;2023-04-05T08:58:27;101686.94;;;33.03;24.82
51460;BME280;37534;39.772;2.718;2023-04-05T09:00:54;101692.69;;;33.90;24.56
51460;BME280;37534;39.772;2.718;2023-04-05T09:03:22;101690.84;;;33.58;23.66
51460;BME280;37534;39.772;2.718;2023-04-05T09:05:52;101692.34;;;33.85;23.69
51460;BME280;37534;39.772;2.718;2023-04-05T09:08:18;101678.84;;;33.70;23.95
51460;BME280;37534;39.772;2.718;2023-04-05T09:10:49;101671.50;;;34.28;23.50
51460;BME280;37534;39.772;2.718;2023-04-05T09:13:16;101675.13;;;34.83;23.00
51460;BME280;37534;39.772;2.718;2023-04-05T09:15:42;101671.56;;;35.14;22.67
51460;BME280;37534;39.772;2.718;2023-04-05T09:18:08;101671.00;;;35.27;22.43
51460;BME280;37534;39.772;2.718;2023-04-05T09:20:33;101675.22;;;32.96;22.92
51460;BME280;37534;39.772;2.718;2023-04-05T09:22:59;101682.72;;;31.63;24.37
51460;BME280;37534;39.772;2.718;2023-04-05T09:27:57;101675.09;;;32.55;24.31
51460;BME280;37534;39.772;2.718;2023-04-05T09:30:24;101666.38;;;31.92;24.76
51460;BME280;37534;39.772;2.718;2023-04-05T09:32:50;101665.06;;;32.14;25.06
51460;BME280;37534;39.772;2.718;2023-04-05T09:35:27;101663.44;;;32.30;25.30
51460;BME280;37534;39.772;2.718;2023-04-05T09:37:56;101663.59;;;33.79;23.95
51460;BME280;37534;39.772;2.718;2023-04-05T09:40:22;101668.03;;;34.03;23.53
51460;BME280;37534;39.772;2.718;2023-04-05T09:42:48;101669.63;;;33.81;23.20
51460;BME280;37534;39.772;2.718;2023-04-05T09:45:14;101668.31;;;34.73;22.55
51460;BME280;37534;39.772;2.718;2023-04-05T09:47:40;101659.22;;;35.05;22.16
51460;BME280;37534;39.772;2.718;2023-04-05T09:52:41;101660.44;;;34.71;21.70
51460;BME280;37534;39.772;2.718;2023-04-05T09:55:08;101655.91;;;35.26;22.22
51460;BME280;37534;39.772;2.718;2023-04-05T09:57:35;101641.91;;;35.54;21.28
51460;BME280;37534;39.772;2.718;2023-04-05T10:00:02;101645.53;;;35.61;21.02
51460;BME280;37534;39.772;2.718;2023-04-05T10:02:37;101635.09;;;35.66;20.24
51460;BME280;37534;39.772;2.718;2023-04-05T10:05:07;101634.47;;;36.09;20.29
51460;BME280;37534;39.772;2.718;2023-04-05T10:07:38;101637.44;;;35.99;20.61
51460;BME280;37534;39.772;2.718;2023-04-05T10:10:05;101636.03;;;35.88;20.71
51460;BME280;37534;39.772;2.718;2023-04-05T10:12:31;101633.72;;;36.00;20.90
51460;BME280;37534;39.772;2.718;2023-04-05T10:14:58;101630.56;;;36.41;20.48
51460;BME280;37534;39.772;2.718;2023-04-05T10:17:30;101630.19;;;35.70;20.90
51460;BME280;37534;39.772;2.718;2023-04-05T10:27:53;101635.94;;;35.29;21.49
51460;BME280;37534;39.772;2.718;2023-04-05T10:30:23;101635.78;;;35.45;20.91
51460;BME280;37534;39.772;2.718;2023-04-05T10:38:28;101648.88;;;33.59;22.09
51460;BME280;37534;39.772;2.718;2023-04-05T10:41:14;101647.56;;;33.71;22.47
51460;BME280;37534;39.772;2.718;2023-04-05T10:43:40;101643.09;;;34.19;22.38
51460;BME280;37534;39.772;2.718;2023-04-05T10:46:07;101644.28;;;34.08;22.59
51460;BME280;37534;39.772;2.718;2023-04-05T10:48:43;101640.78;;;34.00;22.26
51460;BME280;37534;39.772;2.718;2023-04-05T10:51:10;101650.22;;;33.79;22.54
51460;BME280;37534;39.772;2.718;2023-04-05T10:53:36;101649.59;;;34.64;22.48
51460;BME280;37534;39.772;2.718;2023-04-05T10:56:03;101654.56;;;34.67;22.23
51460;BME280;37534;39.772;2.718;2023-04-05T10:58:30;101659.16;;;34.90;21.97
51460;BME280;37534;39.772;2.718;2023-04-05T11:00:57;101652.44;;;34.63;22.14
51460;BME280;37534;39.772;2.718;2023-04-05T11:06:25;101648.44;;;34.27;22.85
51460;BME280;37534;39.772;2.718;2023-04-05T11:09:19;101659.16;;;34.19;23.34
51460;BME280;37534;39.772;2.718;2023-04-05T11:11:49;101659.41;;;34.41;22.79
51460;BME280;37534;39.772;2.718;2023-04-05T11:16:49;101670.03;;;34.57;23.26
51460;BME280;37534;39.772;2.718;2023-04-05T11:19:18;101664.84;;;34.24;22.74
51460;BME280;37534;39.772;2.718;2023-04-05T11:21:44;101661.50;;;34.54;23.10
51460;BME280;37534;39.772;2.718;2023-04-05T11:24:12;101676.31;;;33.28;24.00
51460;BME280;37534;39.772;2.718;2023-04-05T11:29:07;101667.75;;;32.57;24.94
51460;BME280;37534;39.772;2.718;2023-04-05T11:31:33;101668.78;;;30.87;26.86
51460;BME280;37534;39.772;2.718;2023-04-05T11:33:59;101670.38;;;28.88;28.39
51460;BME280;37534;39.772;2.718;2023-04-05T11:36:44;101664.22;;;27.74;29.78
51460;BME280;37534;39.772;2.718;2023-04-05T11:41:51;101661.84;;;27.92;30.88
51460;BME280;37534;39.772;2.718;2023-04-05T11:44:18;101655.66;;;28.65;30.45
51460;BME280;37534;39.772;2.718;2023-04-05T11:46:47;101652.50;;;29.98;29.15
51460;BME280;37534;39.772;2.718;2023-04-05T11:49:13;101652.72;;;30.79;27.57
51460;BME280;37534;39.772;2.718;2023-04-05T11:51:41;101648.28;;;32.30;26.31
51460;BME280;37534;39.772;2.718;2023-04-05T11:54:10;101654.56;;;33.31;25.12
51460;BME280;37534;39.772;2.718;2023-04-05T11:56:36;101649.97;;;34.05;24.79
51460;BME280;37534;39.772;2.718;2023-04-05T11:59:02;101646.13;;;34.00;24.83
51460;BME280;37534;39.772;2.718;2023-04-05T12:01:27;101645.00;;;34.42;23.85
51460;BME280;37534;39.772;2.718;2023-04-05T12:03:54;101640.84;;;33.83;24.64
51460;BME280;37534;39.772;2.718;2023-04-05T12:06:24;101634.72;;;34.14;24.38
51460;BME280;37534;39.772;2.718;2023-04-05T12:08:50;101635.34;;;34.64;24.68
51460;BME280;37534;39.772;2.718;2023-04-05T12:11:25;101633.72;;;34.86;23.32
51460;BME280;37534;39.772;2.718;2023-04-05T12:14:01;101639.13;;;34.78;23.82
51460;BME280;37534;39.772;2.718;2023-04-05T12:16:27;101625.78;;;34.70;23.74
51460;BME280;37534;39.772;2.718;2023-04-05T12:18:55;101633.09;;;35.07;23.58
51460;BME280;37534;39.772;2.718;2023-04-05T12:21:21;101627.47;;;34.71;24.03
51460;BME280;37534;39.772;2.718;2023-04-05T12:23:47;101630.16;;;33.59;24.75
51460;BME280;37534;39.772;2.718;2023-04-05T12:26:13;101621.38;;;31.97;26.26
51460;BME280;37534;39.772;2.718;2023-04-05T12:29:04;101631.56;;;30.50;27.94
51460;BME280;37534;39.772;2.718;2023-04-05T12:31:40;101629.03;;;31.04;27.92
51460;BME280;37534;39.772;2.718;2023-04-05T12:34:07;101617.59;;;32.00;26.58
51460;BME280;37534;39.772;2.718;2023-04-05T12:36:33;101622.03;;;31.91;25.89
51460;BME280;37534;39.772;2.718;2023-04-05T12:38:59;101619.94;;;33.05;24.90
51460;BME280;37534;39.772;2.718;2023-04-05T12:41:29;101608.78;;;33.34;24.25
51460;BME280;37534;39.772;2.718;2023-04-05T12:43:54;101611.72;;;34.36;24.07
51460;BME280;37534;39.772;2.718;2023-04-05T12:46:46;101617.63;;;34.55;22.78
51460;BME280;37534;39.772;2.718;2023-04-05T12:49:16;101603.50;;;34.92;22.68
51460;BME280;37534;39.772;2.718;2023-04-05T12:51:46;101605.91;;;34.87;21.74
51460;BME280;37534;39.772;2.718;2023-04-05T12:54:22;101596.25;;;35.01;21.64
51460;BME280;37534;39.772;2.718;2023-04-05T12:56:54;101603.75;;;35.06;22.26
51460;BME280;37534;39.772;2.718;2023-04-05T12:59:20;101599.59;;;34.80;22.99
51460;BME280;37534;39.772;2.718;2023-04-05T13:01:46;101589.34;;;34.83;22.99
51460;BME280;37534;39.772;2.718;2023-04-05T13:04:12;101585.28;;;35.11;22.53
51460;BME280;37534;39.772;2.718;2023-04-05T13:06:37;101584.22;;;35.20;22.19
51460;BME280;37534;39.772;2.718;2023-04-05T13:09:03;101579.97;;;35.26;21.50
51460;BME280;37534;39.772;2.718;2023-04-05T13:11:29;101582.03;;;34.46;21.44
51460;BME280;37534;39.772;2.718;2023-04-05T13:13:54;101578.22;;;34.40;22.65
51460;BME280;37534;39.772;2.718;2023-04-05T13:16:20;101575.53;;;34.72;21.54
51460;BME280;37534;39.772;2.718;2023-04-05T13:18:46;101569.78;;;34.75;21.54
51460;BME280;37534;39.772;2.718;2023-04-05T13:21:11;101566.78;;;34.46;23.16
51460;BME280;37534;39.772;2.718;2023-04-05T13:23:38;101556.22;;;34.14;23.00
51460;BME280;37534;39.772;2.718;2023-04-05T13:26:05;101569.38;;;34.32;22.11
51460;BME280;37534;39.772;2.718;2023-04-05T13:28:31;101564.50;;;33.96;22.68
51460;BME280;37534;39.772;2.718;2023-04-05T13:30:57;101561.75;;;33.72;22.56
51460;BME280;37534;39.772;2.718;2023-04-05T13:33:22;101552.59;;;33.09;23.78
51460;BME280;37534;39.772;2.718;2023-04-05T13:35:48;101541.25;;;32.83;23.93
51460;BME280;37534;39.772;2.718;2023-04-05T13:38:13;101552.47;;;32.27;24.22